createdAt,value
2019-03-02T00:03:10.404Z,12.82
2019-03-02T00:05:39.727Z,12.81
2019-03-02T00:08:09.051Z,12.73
2019-03-02T00:10:40.756Z,12.75
2019-03-02T00:13:27.620Z,12.63
2019-03-02T00:15:56.962Z,12.76
2019-03-02T00:18:25.885Z,12.80
2019-03-02T00:21:14.808Z,12.74
2019-03-02T00:23:44.150Z,12.76
2019-03-02T00:26:13.479Z,12.79
2019-03-02T00:28:42.853Z,12.83
2019-03-02T00:31:12.192Z,12.79
2019-03-02T00:33:41.767Z,12.66
2019-03-02T00:36:11.135Z,12.54
2019-03-02T00:38:40.718Z,12.51
2019-03-02T00:41:29.745Z,12.50
2019-03-02T00:43:59.787Z,12.15
2019-03-02T00:46:31.804Z,12.21
2019-03-02T00:49:00.416Z,12.41
2019-03-02T00:51:29.745Z,12.37
2019-03-02T00:53:59.103Z,12.35
2019-03-02T00:56:28.443Z,12.24
2019-03-02T00:58:57.073Z,12.39
2019-03-02T01:01:28.703Z,12.36
2019-03-02T01:06:59.183Z,12.36
2019-03-02T01:09:27.813Z,12.13
2019-03-02T01:11:57.149Z,12.24
2019-03-02T01:14:28.734Z,11.92
2019-03-02T01:17:15.717Z,11.96
2019-03-02T01:19:45.064Z,11.93
2019-03-02T01:22:16.555Z,12.05
2019-03-02T01:25:04.370Z,12.03
2019-03-02T01:27:35.107Z,11.94
2019-03-02T01:30:22.933Z,12.04
2019-03-02T01:32:52.900Z,11.72
2019-03-02T01:35:22.304Z,11.61
2019-03-02T01:37:51.647Z,11.68
2019-03-02T01:40:20.299Z,11.82
2019-03-02T01:42:49.630Z,11.75
2019-03-02T01:45:19.080Z,11.79
2019-03-02T01:47:51.146Z,11.81
2019-03-02T01:50:37.637Z,11.85
2019-03-02T01:53:09.980Z,11.79
2019-03-02T01:56:06.173Z,11.63
2019-03-02T01:58:53.072Z,11.62
2019-03-02T02:01:24.827Z,11.66
2019-03-02T02:03:53.498Z,11.72
2019-03-02T02:06:22.118Z,11.62
2019-03-02T02:08:52.765Z,11.56
2019-03-02T02:11:22.260Z,11.51
2019-03-02T02:13:51.586Z,11.36
2019-03-02T02:16:21.139Z,11.66
2019-03-02T02:18:49.764Z,11.50
2019-03-02T02:21:19.116Z,11.50
2019-03-02T02:23:49.797Z,11.37
2019-03-02T02:26:37.697Z,11.14
2019-03-02T02:29:08.212Z,11.20
2019-03-02T02:31:56.252Z,11.28
2019-03-02T02:34:24.902Z,11.51
2019-03-02T02:36:58.131Z,11.51
2019-03-02T02:39:43.493Z,11.35
2019-03-02T02:42:12.844Z,11.37
2019-03-02T02:44:42.188Z,11.53
2019-03-02T02:47:12.759Z,11.53
2019-03-02T02:50:00.963Z,11.37
2019-03-02T02:52:30.281Z,11.43
2019-03-02T02:55:02.293Z,11.13
2019-03-02T02:57:48.845Z,11.05
2019-03-02T03:00:20.135Z,11.00
2019-03-02T03:02:48.766Z,11.22
2019-03-02T03:05:17.692Z,11.25
2019-03-02T03:07:52.845Z,11.09
2019-03-02T03:10:37.972Z,10.87
2019-03-02T03:13:07.307Z,10.82
2019-03-02T03:15:41.119Z,10.85
2019-03-02T03:18:14.909Z,10.75
2019-03-02T03:20:59.605Z,10.82
2019-03-02T03:23:28.255Z,10.60
2019-03-02T03:25:58.571Z,10.58
2019-03-02T03:28:46.409Z,10.76
2019-03-02T03:31:23.215Z,11.00
2019-03-02T03:34:04.972Z,10.97
2019-03-02T03:36:35.525Z,11.13
2019-03-02T03:39:23.620Z,11.01
2019-03-02T03:41:52.933Z,11.01
2019-03-02T03:44:25.884Z,10.70
2019-03-02T03:46:56.221Z,10.61
2019-03-02T03:49:44.308Z,10.68
2019-03-02T03:52:13.681Z,10.81
2019-03-02T03:54:45.466Z,10.96
2019-03-02T03:57:32.246Z,10.85
2019-03-02T04:00:01.689Z,10.87
2019-03-02T04:02:31.238Z,10.61
2019-03-02T04:05:07.668Z,10.26
2019-03-02T04:07:51.576Z,10.27
2019-03-02T04:10:39.673Z,10.11
2019-03-02T04:13:09.035Z,10.07
2019-03-02T04:15:41.571Z,10.32
2019-03-02T04:19:06.331Z,10.46
2019-03-02T04:21:37.754Z,10.30
2019-03-02T04:24:06.395Z,10.25
2019-03-02T04:26:36.815Z,10.21
2019-03-02T04:29:10.014Z,10.16
2019-03-02T04:31:36.814Z,10.26
2019-03-02T04:34:06.174Z,10.13
2019-03-02T04:36:35.530Z,10.16
2019-03-02T04:39:09.496Z,10.24
2019-03-02T04:41:39.538Z,9.94
2019-03-02T04:44:29.539Z,9.84
2019-03-02T04:47:15.006Z,9.89
2019-03-02T04:49:43.630Z,9.99
2019-03-02T04:52:14.586Z,10.02
2019-03-02T04:55:02.279Z,9.97
2019-03-02T04:57:33.145Z,9.71
2019-03-02T05:00:20.851Z,9.78
2019-03-02T05:02:51.659Z,10.01
2019-03-02T05:05:40.646Z,9.74
2019-03-02T05:08:28.664Z,9.75
2019-03-02T05:11:00.699Z,9.68
2019-03-02T05:13:47.235Z,9.57
2019-03-02T05:16:19.509Z,9.51
2019-03-02T05:18:49.710Z,9.63
2019-03-02T05:21:39.857Z,9.44
2019-03-02T05:24:27.361Z,9.45
2019-03-02T05:26:56.772Z,9.48
2019-03-02T05:29:25.560Z,9.36
2019-03-02T05:31:54.873Z,9.59
2019-03-02T05:34:24.226Z,9.41
2019-03-02T05:36:53.557Z,9.49
2019-03-02T05:39:22.905Z,9.60
2019-03-02T05:41:53.196Z,9.59
2019-03-02T05:44:22.525Z,9.56
2019-03-02T05:47:11.404Z,9.62
2019-03-02T05:49:40.751Z,9.52
2019-03-02T05:52:10.117Z,9.66
2019-03-02T05:54:41.563Z,9.61
2019-03-02T05:57:28.176Z,9.75
2019-03-02T05:59:58.652Z,9.99
2019-03-02T06:02:46.653Z,9.94
2019-03-02T06:05:35.379Z,9.88
2019-03-02T06:08:04.716Z,9.98
2019-03-02T06:10:34.271Z,9.90
2019-03-02T06:13:03.628Z,10.01
2019-03-02T06:15:32.981Z,10.32
2019-03-02T06:18:04.363Z,10.22
2019-03-02T06:20:32.603Z,10.33
2019-03-02T06:23:21.426Z,10.38
2019-03-02T06:25:50.070Z,10.44
2019-03-02T06:28:19.568Z,10.29
2019-03-02T06:31:08.650Z,10.28
2019-03-02T06:33:48.613Z,10.40
2019-03-02T06:36:17.192Z,10.60
2019-03-02T06:38:46.554Z,10.73
2019-03-02T06:41:15.876Z,10.74
2019-03-02T06:43:45.219Z,10.86
2019-03-02T06:46:15.868Z,10.83
2019-03-02T06:49:03.818Z,11.02
2019-03-02T06:51:32.476Z,11.06
2019-03-02T06:54:01.822Z,11.00
2019-03-02T06:56:32.635Z,11.02
2019-03-02T06:59:19.676Z,11.13
2019-03-02T07:01:48.326Z,11.16
2019-03-02T07:04:18.081Z,11.28
2019-03-02T07:07:06.278Z,11.34
2019-03-02T07:09:35.592Z,11.35
2019-03-02T07:12:05.947Z,11.47
2019-03-02T07:14:54.163Z,11.49
2019-03-02T07:17:42.291Z,11.53
2019-03-02T07:20:31.366Z,11.58
2019-03-02T07:23:00.748Z,11.62
2019-03-02T07:25:49.892Z,11.67
2019-03-02T07:28:19.235Z,11.73
2019-03-02T07:30:47.898Z,11.81
2019-03-02T07:33:17.666Z,11.87
2019-03-02T07:35:46.271Z,11.92
2019-03-02T07:38:16.905Z,11.99
2019-03-02T07:41:04.945Z,12.08
2019-03-02T07:43:33.617Z,12.26
2019-03-02T07:46:03.076Z,12.38
2019-03-02T07:48:33.151Z,12.44
2019-03-02T07:51:21.700Z,12.57
2019-03-02T07:53:51.034Z,12.63
2019-03-02T07:56:20.839Z,12.63
2019-03-02T07:58:51.882Z,12.68
2019-03-02T08:01:39.473Z,12.73
2019-03-02T08:04:08.840Z,12.80
2019-03-02T08:06:38.088Z,12.81
2019-03-02T08:09:07.535Z,12.90
2019-03-02T08:11:36.895Z,13.04
2019-03-02T08:14:08.804Z,13.21
2019-03-02T08:16:54.786Z,13.42
2019-03-02T08:19:24.240Z,13.61
2019-03-02T08:21:53.598Z,13.77
2019-03-02T08:24:22.937Z,13.90
2019-03-02T08:26:52.275Z,14.01
2019-03-02T08:29:22.064Z,13.99
2019-03-02T08:32:13.384Z,14.11
2019-03-02T08:34:46.291Z,14.29
2019-03-02T08:37:32.122Z,14.45
2019-03-02T08:40:02.104Z,14.40
2019-03-02T08:42:31.447Z,14.38
2019-03-02T08:44:59.977Z,14.39
2019-03-02T08:47:28.824Z,14.32
2019-03-02T08:49:58.144Z,14.32
2019-03-02T08:52:28.354Z,14.28
2019-03-02T08:54:58.342Z,14.30
2019-03-02T08:57:47.045Z,14.37
2019-03-02T09:00:38.880Z,14.39
2019-03-02T09:03:24.957Z,14.38
2019-03-02T09:05:55.558Z,14.36
2019-03-02T09:08:43.603Z,14.42
2019-03-02T09:11:12.432Z,14.49
2019-03-02T09:13:41.091Z,14.52
2019-03-02T09:16:09.756Z,14.58
2019-03-02T09:18:45.389Z,14.57
2019-03-02T09:21:28.349Z,14.60
2019-03-02T09:23:57.704Z,14.67
2019-03-02T09:26:26.340Z,14.65
2019-03-02T09:28:56.120Z,14.67
2019-03-02T09:31:46.803Z,14.66
2019-03-02T09:34:36.965Z,14.78
2019-03-02T09:37:07.041Z,14.73
2019-03-02T09:39:54.112Z,14.70
2019-03-02T09:42:23.472Z,14.64
2019-03-02T09:44:52.045Z,14.53
2019-03-02T09:47:21.371Z,14.53
2019-03-02T09:49:50.720Z,14.52
2019-03-02T09:52:20.197Z,14.51
2019-03-02T09:54:49.617Z,14.50
2019-03-02T09:57:19.029Z,14.50
2019-03-02T09:59:48.474Z,14.47
2019-03-02T10:02:17.143Z,14.53
2019-03-02T10:04:45.827Z,14.51
2019-03-02T10:07:15.209Z,14.58
2019-03-02T10:09:44.087Z,14.59
2019-03-02T10:12:13.740Z,14.67
2019-03-02T10:15:15.025Z,14.70
2019-03-02T10:17:43.853Z,14.85
2019-03-02T10:20:13.376Z,15.00
2019-03-02T10:22:42.830Z,14.94
2019-03-02T10:25:12.320Z,14.98
2019-03-02T10:27:43.155Z,15.01
2019-03-02T10:30:14.027Z,15.10
2019-03-02T10:32:42.777Z,15.24
2019-03-02T10:38:14.993Z,15.24
2019-03-02T10:41:04.040Z,15.44
2019-03-02T10:43:33.417Z,15.49
2019-03-02T10:46:02.923Z,15.60
2019-03-02T10:48:32.267Z,15.84
2019-03-02T10:51:02.438Z,16.00
2019-03-02T10:53:50.973Z,15.84
2019-03-02T10:56:20.875Z,15.91
2019-03-02T10:59:11.931Z,16.00
2019-03-02T11:01:58.197Z,16.08
2019-03-02T11:04:47.021Z,15.97
2019-03-02T11:07:35.145Z,15.95
2019-03-02T11:10:40.010Z,15.92
2019-03-02T11:13:33.961Z,16.08
2019-03-02T11:16:21.972Z,15.94
2019-03-02T11:19:11.409Z,15.96
2019-03-02T11:22:00.803Z,15.73
2019-03-02T11:24:49.605Z,15.84
2019-03-02T11:27:37.642Z,15.99
2019-03-02T11:30:27.319Z,15.91
2019-03-02T11:33:15.433Z,15.84
2019-03-02T11:39:06.658Z,15.69
2019-03-02T11:41:54.983Z,15.71
2019-03-02T11:44:43.124Z,15.70
2019-03-02T11:47:33.004Z,15.75
2019-03-02T11:50:21.326Z,15.63
2019-03-02T11:53:29.537Z,15.59
2019-03-02T11:56:25.091Z,15.48
2019-03-02T11:59:26.498Z,15.31
2019-03-02T12:02:19.696Z,15.16
2019-03-02T12:05:24.991Z,14.93
2019-03-02T12:08:17.943Z,14.78
2019-03-02T12:11:23.411Z,14.65
2019-03-02T12:14:12.229Z,14.64
2019-03-02T12:17:04.587Z,14.63
2019-03-02T12:20:09.881Z,14.58
2019-03-02T12:22:57.976Z,14.59
2019-03-02T12:25:45.995Z,14.53
2019-03-02T12:28:36.303Z,14.58
2019-03-02T12:31:43.624Z,14.60
2019-03-02T12:34:34.629Z,14.63
2019-03-02T12:37:35.412Z,14.68
2019-03-02T12:40:44.965Z,14.66
2019-03-02T12:43:33.102Z,14.66
2019-03-02T12:46:09.506Z,14.62
2019-03-02T12:49:17.305Z,14.70
2019-03-02T12:52:05.627Z,14.62
2019-03-02T12:54:54.002Z,14.58
2019-03-02T12:57:45.392Z,14.54
2019-03-02T13:00:51.553Z,14.54
2019-03-02T13:03:39.826Z,14.49
2019-03-02T13:06:32.115Z,14.57
2019-03-02T13:09:16.137Z,14.53
2019-03-02T13:12:05.690Z,14.55
2019-03-02T13:15:09.357Z,14.61
2019-03-02T13:17:58.641Z,14.53
2019-03-02T13:21:05.164Z,14.52
2019-03-02T13:23:54.016Z,14.49
2019-03-02T13:26:40.595Z,14.50
2019-03-02T13:29:28.719Z,14.50
2019-03-02T13:32:19.846Z,14.53
2019-03-02T13:35:26.094Z,14.55
2019-03-02T13:38:14.244Z,14.59
2019-03-02T13:40:49.151Z,14.59
2019-03-02T13:43:37.958Z,14.60
2019-03-02T13:46:15.265Z,14.60
2019-03-02T13:49:04.071Z,14.59
2019-03-02T13:51:41.177Z,14.57
2019-03-02T13:54:15.318Z,14.57
2019-03-02T13:57:04.731Z,14.54
2019-03-02T14:00:10.030Z,14.55
2019-03-02T14:02:58.839Z,14.48
2019-03-02T14:05:46.978Z,14.53
2019-03-02T14:11:08.477Z,14.54
2019-03-02T14:13:47.165Z,14.62
2019-03-02T14:16:36.329Z,14.60
2019-03-02T14:19:25.254Z,14.53
2019-03-02T14:22:11.348Z,14.54
2019-03-02T14:25:22.417Z,14.59
2019-03-02T14:28:30.425Z,14.53
2019-03-02T14:31:39.007Z,14.36
2019-03-02T14:34:27.099Z,14.34
2019-03-02T14:37:01.636Z,14.33
2019-03-02T14:39:50.572Z,14.27
2019-03-02T14:42:39.893Z,14.32
2019-03-02T14:45:43.077Z,14.26
2019-03-02T14:48:32.813Z,14.23
2019-03-02T14:51:26.100Z,14.20
2019-03-02T14:54:17.315Z,14.21
2019-03-02T14:57:24.692Z,14.23
2019-03-02T15:00:18.024Z,14.30
2019-03-02T15:03:06.914Z,14.31
2019-03-02T15:05:57.219Z,14.28
2019-03-02T15:08:45.647Z,14.25
2019-03-02T15:11:36.576Z,14.17
2019-03-02T15:14:29.534Z,14.16
2019-03-02T15:17:18.713Z,13.99
2019-03-02T15:20:28.883Z,13.80
2019-03-02T15:23:38.713Z,13.56
2019-03-02T15:26:21.355Z,13.31
2019-03-02T15:28:57.267Z,12.94
2019-03-02T15:31:45.790Z,12.35
2019-03-02T15:34:34.062Z,12.08
2019-03-02T15:37:24.205Z,11.74
2019-03-02T15:40:33.555Z,11.59
2019-03-02T15:43:40.657Z,11.21
2019-03-02T15:46:32.289Z,11.27
2019-03-02T15:49:19.475Z,11.22
2019-03-02T15:51:54.127Z,11.34
2019-03-02T15:54:43.031Z,11.00
2019-03-02T15:57:39.525Z,11.07
2019-03-02T16:00:39.955Z,11.13
2019-03-02T16:03:20.423Z,10.80
2019-03-02T16:06:25.653Z,10.90
2019-03-02T16:09:30.384Z,10.95
2019-03-02T16:12:19.329Z,10.60
2019-03-02T16:15:08.831Z,10.66
2019-03-02T16:18:16.714Z,10.76
2019-03-02T16:21:06.123Z,10.73
2019-03-02T16:23:54.232Z,10.72
2019-03-02T16:26:43.142Z,10.65
2019-03-02T16:29:31.453Z,10.59
2019-03-02T16:32:20.237Z,10.63
2019-03-02T16:35:09.986Z,10.66
2019-03-02T16:37:50.061Z,10.71
2019-03-02T16:40:59.415Z,10.63
2019-03-02T16:44:06.798Z,10.70
2019-03-02T16:46:55.589Z,10.61
2019-03-02T16:49:43.704Z,10.70
2019-03-02T16:52:31.897Z,10.32
2019-03-02T16:55:20.525Z,10.53
2019-03-02T16:58:09.558Z,10.45
2019-03-02T17:00:58.554Z,10.28
2019-03-02T17:03:46.635Z,10.03
2019-03-02T17:06:34.692Z,10.01
2019-03-02T17:12:15.994Z,9.81
2019-03-02T17:15:25.659Z,9.87
2019-03-02T17:18:11.945Z,9.95
2019-03-02T17:21:00.770Z,9.71
2019-03-02T17:23:49.755Z,9.50
2019-03-02T17:26:42.057Z,9.34
2019-03-02T17:29:48.831Z,9.46
2019-03-02T17:32:56.041Z,9.28
2019-03-02T17:35:44.146Z,9.53
2019-03-02T17:38:32.255Z,9.73
2019-03-02T17:41:21.063Z,9.68
2019-03-02T17:44:09.888Z,9.16
2019-03-02T17:46:58.802Z,9.48
2019-03-02T17:49:47.604Z,9.29
2019-03-02T17:52:35.914Z,9.13
2019-03-02T17:55:25.038Z,9.06
2019-03-02T17:58:19.311Z,8.99
2019-03-02T18:01:08.326Z,8.97
2019-03-02T18:03:51.994Z,8.97
2019-03-02T18:06:40.912Z,8.90
2019-03-02T18:09:29.729Z,8.82
2019-03-02T18:12:18.530Z,9.05
2019-03-02T18:15:06.758Z,8.83
2019-03-02T18:17:56.940Z,8.48
2019-03-02T18:20:26.397Z,8.92
2019-03-02T18:22:55.841Z,8.97
2019-03-02T18:25:25.200Z,8.99
2019-03-02T18:27:54.669Z,8.69
2019-03-02T18:30:23.541Z,8.34
2019-03-02T18:32:54.845Z,8.73
2019-03-02T18:35:23.477Z,8.82
2019-03-02T18:37:52.218Z,8.52
2019-03-02T18:40:21.673Z,8.54
2019-03-02T18:42:50.365Z,8.36
2019-03-02T18:45:19.045Z,8.39
2019-03-02T18:47:48.405Z,8.00
2019-03-02T18:50:37.219Z,8.34
2019-03-02T18:56:02.527Z,8.42
2019-03-02T18:58:31.456Z,8.37
2019-03-02T19:01:01.363Z,8.58
2019-03-02T19:03:50.043Z,8.56
2019-03-02T19:06:19.385Z,8.00
2019-03-02T19:08:51.477Z,8.31
2019-03-02T19:11:38.043Z,8.02
2019-03-02T19:14:07.426Z,8.16
2019-03-02T19:16:37.358Z,8.24
2019-03-02T19:19:06.107Z,7.81
2019-03-02T19:21:34.769Z,7.86
2019-03-02T19:24:03.662Z,8.00
2019-03-02T19:26:33.116Z,7.82
2019-03-02T19:31:44.681Z,8.01
2019-03-02T19:34:13.373Z,8.14
2019-03-02T19:36:42.029Z,8.05
2019-03-02T19:39:30.754Z,8.11
2019-03-02T19:42:00.267Z,8.37
2019-03-02T19:44:29.650Z,8.21
2019-03-02T19:46:59.117Z,8.11
2019-03-02T19:49:27.870Z,7.65
2019-03-02T19:51:57.339Z,7.81
2019-03-02T19:54:25.998Z,7.96
2019-03-02T19:56:55.345Z,7.80
2019-03-02T19:59:23.904Z,7.91
2019-03-02T20:01:53.253Z,7.98
2019-03-02T20:04:22.607Z,7.66
2019-03-02T20:06:51.946Z,7.61
2019-03-02T20:09:21.293Z,7.75
2019-03-02T20:11:50.624Z,7.75
2019-03-02T20:14:19.981Z,7.66
2019-03-02T20:16:49.348Z,7.79
2019-03-02T20:19:18.706Z,7.68
2019-03-02T20:21:48.054Z,7.61
2019-03-02T20:24:17.392Z,7.49
2019-03-02T20:26:46.009Z,7.40
2019-03-02T20:29:15.351Z,7.44
2019-03-02T20:31:44.706Z,7.22
2019-03-02T20:34:14.062Z,7.30
2019-03-02T20:36:43.395Z,7.42
2019-03-02T20:39:12.753Z,7.51
2019-03-02T20:41:42.138Z,7.92
2019-03-02T20:44:11.469Z,7.53
2019-03-02T20:46:40.827Z,7.42
2019-03-02T20:49:09.455Z,7.41
2019-03-02T20:51:38.086Z,7.19
2019-03-02T20:57:09.031Z,7.58
2019-03-02T20:59:37.794Z,7.31
2019-03-02T21:02:07.229Z,7.24
2019-03-02T21:04:36.573Z,7.12
2019-03-02T21:07:05.921Z,7.00
2019-03-02T21:09:35.259Z,6.98
2019-03-02T21:12:04.622Z,7.29
2019-03-02T21:14:33.940Z,7.20
2019-03-02T21:17:03.404Z,7.18
2019-03-02T21:19:32.753Z,7.19
2019-03-02T21:22:01.420Z,7.37
2019-03-02T21:24:30.748Z,7.40
2019-03-02T21:27:00.104Z,7.07
2019-03-02T21:29:29.451Z,7.25
2019-03-02T21:31:58.774Z,7.38
2019-03-02T21:34:28.121Z,7.29
2019-03-02T21:36:57.485Z,7.30
2019-03-02T21:39:26.835Z,7.34
2019-03-02T21:41:56.180Z,7.40
2019-03-02T21:44:25.515Z,7.15
2019-03-02T21:46:54.888Z,6.80
2019-03-02T21:49:23.648Z,6.62
2019-03-02T21:51:52.166Z,6.94
2019-03-02T21:54:21.511Z,7.04
2019-03-02T21:56:50.862Z,7.31
2019-03-02T21:59:20.189Z,6.94
2019-03-02T22:01:48.856Z,7.27
2019-03-02T22:04:18.243Z,6.87
2019-03-02T22:06:47.576Z,6.99
2019-03-02T22:09:16.940Z,6.50
2019-03-02T22:11:46.290Z,7.16
2019-03-02T22:14:15.639Z,7.13
2019-03-02T22:16:44.307Z,6.46
2019-03-02T22:19:13.653Z,6.63
2019-03-02T22:21:43.027Z,7.01
2019-03-02T22:24:12.360Z,6.32
2019-03-02T22:26:41.704Z,6.80
2019-03-02T22:29:11.052Z,6.65
2019-03-02T22:31:40.401Z,6.62
2019-03-02T22:34:09.031Z,6.32
2019-03-02T22:36:37.678Z,6.64
2019-03-02T22:39:06.612Z,6.59
2019-03-02T22:41:36.046Z,6.62
2019-03-02T22:44:05.380Z,6.26
2019-03-02T22:46:34.714Z,6.44
2019-03-02T22:49:04.044Z,6.11
2019-03-02T22:54:36.303Z,6.32
2019-03-02T22:57:05.633Z,6.07
2019-03-02T23:02:36.241Z,6.43
2019-03-02T23:05:05.725Z,6.71
2019-03-02T23:07:35.160Z,6.86
2019-03-02T23:10:05.576Z,6.97
2019-03-02T23:12:34.220Z,6.80
2019-03-02T23:15:04.520Z,6.82
2019-03-02T23:17:33.153Z,6.23
2019-03-02T23:20:14.388Z,5.96
2019-03-02T23:22:43.110Z,6.14
2019-03-02T23:28:15.220Z,5.96
2019-03-02T23:30:44.560Z,5.96
2019-03-02T23:38:58.920Z,6.08
2019-03-02T23:41:28.239Z,5.94
2019-03-02T23:43:57.589Z,6.05
2019-03-02T23:46:26.917Z,6.17
2019-03-02T23:48:56.246Z,6.16
2019-03-02T23:57:30.522Z,5.78
2019-03-02T23:59:59.842Z,6.34
